createdAt,value
2023-05-23T00:02:16.668Z,7.07
2023-05-23T00:05:39.186Z,7.03
2023-05-23T00:09:18.978Z,8.37
2023-05-23T00:12:21.025Z,8.67
2023-05-23T00:16:00.516Z,9.00
2023-05-23T00:19:02.441Z,8.67
2023-05-23T00:22:42.057Z,7.33
2023-05-23T00:29:22.919Z,9.53
2023-05-23T00:32:25.255Z,8.13
2023-05-23T00:36:04.580Z,9.17
2023-05-23T00:39:25.713Z,11.03
2023-05-23T00:42:47.070Z,9.67
2023-05-23T00:45:49.561Z,7.80
2023-05-23T00:52:11.149Z,7.77
2023-05-23T00:55:13.526Z,8.67
2023-05-23T01:01:54.813Z,9.83
2023-05-23T01:05:17.995Z,8.17
2023-05-23T01:08:40.207Z,8.20
2023-05-23T01:20:09.042Z,8.67
2023-05-23T01:38:54.193Z,13.77
2023-05-23T01:41:57.118Z,9.63
2023-05-23T01:52:16.089Z,9.20
2023-05-23T01:55:23.019Z,7.67
2023-05-23T01:59:02.072Z,9.87
2023-05-23T02:02:04.394Z,7.73
2023-05-23T02:05:44.058Z,8.50
2023-05-23T02:12:24.491Z,8.40
2023-05-23T02:15:27.091Z,8.57
2023-05-23T02:22:26.329Z,8.37
2023-05-23T02:25:46.540Z,7.80
2023-05-23T02:32:26.572Z,10.40
2023-05-23T02:35:47.862Z,7.77
2023-05-23T02:43:05.714Z,7.60
2023-05-23T02:46:26.842Z,10.33
2023-05-23T02:49:29.022Z,10.30
2023-05-23T02:56:27.406Z,8.60
2023-05-23T03:00:10.230Z,10.17
2023-05-23T03:03:31.036Z,12.03
2023-05-23T03:17:14.034Z,7.80
2023-05-23T03:20:34.439Z,11.87
2023-05-23T03:27:51.651Z,8.00
2023-05-23T03:30:54.071Z,8.00
2023-05-23T03:33:55.973Z,9.70
2023-05-23T03:41:14.524Z,11.27
2023-05-23T03:44:16.602Z,8.27
2023-05-23T03:54:35.056Z,9.03
2023-05-23T03:57:55.583Z,7.67
2023-05-23T04:01:01.212Z,10.47
2023-05-23T04:04:23.158Z,12.53
2023-05-23T04:07:26.829Z,8.57
2023-05-23T04:10:28.710Z,7.83
2023-05-23T04:13:50.986Z,9.63
2023-05-23T04:16:52.902Z,8.00
2023-05-23T04:19:54.889Z,11.27
2023-05-23T04:23:15.162Z,8.17
2023-05-23T04:26:36.714Z,7.93
2023-05-23T04:29:58.550Z,10.23
2023-05-23T04:33:00.555Z,7.73
2023-05-23T04:36:02.744Z,7.90
2023-05-23T04:39:25.025Z,12.87
2023-05-23T04:42:27.670Z,9.17
2023-05-23T04:45:30.089Z,7.47
2023-05-23T04:49:28.427Z,8.13
2023-05-23T04:55:53.707Z,7.20
2023-05-23T04:58:56.673Z,7.13
2023-05-23T05:02:17.029Z,6.83
2023-05-23T05:05:56.437Z,7.17
2023-05-23T05:08:58.486Z,8.20
2023-05-23T05:15:38.219Z,7.13
2023-05-23T05:25:57.008Z,7.57
2023-05-23T05:32:37.355Z,7.10
2023-05-23T05:35:57.883Z,8.47
2023-05-23T05:38:59.895Z,12.47
2023-05-23T05:42:21.445Z,10.03
2023-05-23T05:45:41.867Z,10.03
2023-05-23T05:49:03.009Z,9.50
2023-05-23T05:52:07.250Z,9.00
2023-05-23T05:55:29.055Z,8.07
2023-05-23T05:58:31.188Z,9.00
2023-05-23T06:04:54.705Z,8.57
2023-05-23T06:07:56.720Z,8.23
2023-05-23T06:11:17.475Z,10.77
2023-05-23T06:14:19.960Z,8.47
2023-05-23T06:17:41.512Z,11.07
2023-05-23T06:21:04.115Z,8.13
2023-05-23T06:24:24.345Z,7.20
2023-05-23T06:31:24.263Z,12.32
2023-05-23T06:37:46.115Z,9.52
2023-05-23T06:51:05.428Z,8.87
2023-05-23T06:54:27.053Z,9.73
2023-05-23T06:57:47.611Z,9.67
2023-05-23T07:01:09.907Z,11.73
2023-05-23T07:08:08.800Z,8.98
2023-05-23T07:11:29.508Z,11.68
2023-05-23T07:29:59.996Z,6.82
2023-05-23T07:36:41.404Z,7.03
2023-05-23T07:40:02.145Z,10.27
2023-05-23T07:43:04.482Z,8.90
2023-05-23T07:50:03.082Z,7.95
2023-05-23T07:53:04.958Z,7.15
2023-05-23T07:56:07.601Z,7.22
2023-05-23T07:59:30.366Z,10.88
2023-05-23T08:07:04.064Z,9.07
2023-05-23T08:10:26.533Z,15.68
2023-05-23T08:13:28.682Z,8.55
2023-05-23T08:20:09.025Z,7.22
2023-05-23T08:27:45.680Z,7.55
2023-05-23T08:31:08.280Z,7.85
2023-05-23T08:34:28.763Z,7.70
2023-05-23T08:37:50.219Z,7.18
2023-05-23T08:41:32.589Z,7.38
2023-05-23T08:44:35.270Z,7.63
2023-05-23T08:51:03.548Z,8.18
2023-05-23T08:54:25.014Z,13.13
2023-05-23T08:57:47.052Z,11.03
2023-05-23T09:00:50.439Z,12.40
2023-05-23T09:04:11.927Z,14.23
2023-05-23T09:07:17.076Z,14.27
2023-05-23T09:10:58.084Z,11.63
2023-05-23T09:14:38.015Z,10.97
2023-05-23T09:17:40.509Z,10.80
2023-05-23T09:21:03.169Z,12.63
2023-05-23T09:24:06.275Z,11.17
2023-05-23T09:27:08.932Z,13.77
2023-05-23T09:30:12.204Z,13.07
2023-05-23T09:40:34.313Z,9.40
2023-05-23T09:43:58.080Z,10.00
2023-05-23T09:54:16.494Z,10.23
2023-05-23T09:57:38.106Z,12.17
2023-05-23T10:11:34.765Z,8.77
2023-05-23T10:22:57.361Z,5.27
2023-05-23T10:26:18.044Z,6.43
2023-05-23T10:29:57.789Z,6.60
2023-05-23T10:33:00.207Z,4.13
2023-05-23T10:36:24.687Z,5.93
2023-05-23T10:40:04.037Z,4.55
2023-05-23T10:51:07.736Z,4.47
2023-05-23T10:54:31.508Z,4.83
2023-05-23T11:01:17.098Z,6.20
2023-05-23T11:04:37.572Z,3.70
2023-05-23T11:12:00.130Z,3.42
2023-05-23T11:15:03.284Z,4.32
2023-05-23T11:22:04.067Z,5.90
2023-05-23T11:25:12.716Z,4.95
2023-05-23T11:28:14.897Z,4.68
2023-05-23T11:31:35.671Z,4.47
2023-05-23T11:38:17.754Z,6.00
2023-05-23T11:48:18.190Z,6.38
2023-05-23T11:51:21.398Z,4.60
2023-05-23T11:54:44.892Z,5.55
2023-05-23T11:57:47.016Z,6.43
2023-05-23T12:04:14.392Z,5.60
2023-05-23T12:14:19.040Z,6.18
2023-05-23T12:20:45.453Z,3.95
2023-05-23T12:23:47.479Z,4.20
2023-05-23T12:27:00.525Z,5.43
2023-05-23T12:30:11.302Z,4.50
2023-05-23T12:37:19.815Z,5.00
2023-05-23T12:40:22.686Z,4.80
2023-05-23T12:44:11.671Z,5.30
2023-05-23T12:47:32.313Z,4.68
2023-05-23T12:50:34.643Z,4.35
2023-05-23T12:54:14.070Z,4.38
2023-05-23T13:01:13.145Z,8.15
2023-05-23T13:04:15.198Z,3.92
2023-05-23T13:07:36.100Z,3.60
2023-05-23T13:10:38.872Z,4.20
2023-05-23T13:18:15.277Z,4.53
2023-05-23T13:28:16.113Z,6.70
2023-05-23T13:34:56.139Z,6.75
2023-05-23T13:37:58.076Z,6.32
2023-05-23T13:41:00.198Z,9.85
2023-05-23T13:44:21.018Z,6.35
2023-05-23T13:54:26.073Z,6.32
2023-05-23T13:57:46.965Z,5.10
2023-05-23T14:01:08.028Z,5.13
2023-05-23T14:04:10.349Z,7.93
2023-05-23T14:08:08.817Z,5.20
2023-05-23T14:11:48.323Z,5.22
2023-05-23T14:15:28.422Z,5.32
2023-05-23T14:18:30.507Z,3.97
2023-05-23T14:22:10.070Z,4.93
2023-05-23T14:32:28.431Z,3.60
2023-05-23T14:35:49.046Z,4.55
2023-05-23T14:38:51.886Z,4.22
2023-05-23T14:41:53.932Z,4.05
2023-05-23T14:44:55.813Z,7.85
2023-05-23T14:55:15.562Z,4.35
2023-05-23T14:58:36.308Z,4.05
2023-05-23T15:04:59.139Z,5.28
2023-05-23T15:08:01.716Z,3.60
2023-05-23T15:11:03.646Z,5.35
2023-05-23T15:14:24.079Z,3.95
2023-05-23T15:17:44.819Z,3.42
2023-05-23T15:21:50.531Z,5.15
2023-05-23T15:25:48.047Z,3.20
2023-05-23T15:28:52.057Z,5.05
2023-05-23T15:35:52.043Z,3.38
2023-05-23T15:38:53.949Z,4.75
2023-05-23T15:42:15.066Z,5.35
2023-05-23T15:49:07.298Z,3.58
2023-05-23T15:55:35.831Z,4.50
2023-05-23T15:58:37.776Z,8.27
2023-05-23T16:01:40.350Z,6.57
2023-05-23T16:05:01.177Z,5.22
2023-05-23T16:11:23.065Z,4.80
2023-05-23T16:14:43.668Z,7.70
2023-05-23T16:25:03.075Z,6.25
2023-05-23T16:28:04.964Z,9.95
2023-05-23T16:31:07.053Z,5.07
2023-05-23T16:38:07.060Z,8.00
2023-05-23T16:48:24.927Z,7.75
2023-05-23T16:51:47.135Z,6.13
2023-05-23T16:55:09.257Z,5.00
2023-05-23T16:58:12.911Z,5.40
2023-05-23T17:01:33.298Z,6.77
2023-05-23T17:04:54.077Z,6.57
2023-05-23T17:08:14.384Z,5.43
2023-05-23T17:15:49.951Z,5.97
2023-05-23T17:19:11.115Z,12.20
2023-05-23T17:30:07.297Z,6.93
2023-05-23T17:33:46.822Z,6.30
2023-05-23T17:37:07.522Z,8.27
2023-05-23T17:40:14.535Z,6.77
2023-05-23T17:43:22.557Z,6.10
2023-05-23T17:46:24.918Z,6.77
2023-05-23T17:49:27.160Z,6.40
2023-05-23T17:52:29.993Z,9.83
2023-05-23T17:55:31.978Z,8.10
2023-05-23T17:58:34.093Z,11.23
2023-05-23T18:01:36.124Z,7.63
2023-05-23T18:04:40.010Z,7.63
2023-05-23T18:07:42.151Z,10.13
2023-05-23T18:10:48.179Z,8.50
2023-05-23T18:13:51.001Z,8.40
2023-05-23T18:16:53.128Z,8.90
2023-05-23T18:19:55.579Z,8.27
2023-05-23T18:22:57.608Z,9.87
2023-05-23T18:25:59.575Z,8.90
2023-05-23T18:29:03.064Z,8.87
2023-05-23T18:32:05.352Z,9.60
2023-05-23T18:35:08.129Z,10.27
2023-05-23T18:38:10.184Z,8.60
2023-05-23T18:41:14.717Z,9.50
2023-05-23T18:44:20.564Z,7.73
2023-05-23T18:47:23.522Z,9.50
2023-05-23T18:50:26.499Z,11.80
2023-05-23T18:53:29.076Z,12.67
2023-05-23T18:56:31.710Z,11.13
2023-05-23T18:59:33.728Z,12.70
2023-05-23T19:02:35.902Z,10.40
2023-05-23T19:05:38.102Z,9.73
2023-05-23T19:08:42.024Z,10.47
2023-05-23T19:11:44.064Z,13.40
2023-05-23T19:14:46.678Z,11.23
2023-05-23T19:17:48.953Z,11.33
2023-05-23T19:20:52.112Z,15.57
2023-05-23T19:23:54.808Z,14.07
2023-05-23T19:26:57.851Z,11.73
2023-05-23T19:29:59.793Z,9.40
2023-05-23T19:33:02.160Z,10.53
2023-05-23T19:36:05.423Z,14.93
2023-05-23T19:39:08.781Z,13.43
2023-05-23T19:42:10.749Z,16.50
2023-05-23T19:45:12.930Z,13.73
2023-05-23T19:48:15.040Z,10.03
2023-05-23T19:51:17.482Z,12.13
2023-05-23T19:54:20.728Z,11.77
2023-05-23T19:57:22.791Z,14.03
2023-05-23T20:00:25.840Z,11.07
2023-05-23T20:03:28.226Z,13.70
2023-05-23T20:06:30.331Z,14.47
2023-05-23T20:09:32.353Z,14.40
2023-05-23T20:12:34.717Z,11.63
2023-05-23T20:15:40.316Z,13.00
2023-05-23T20:18:43.256Z,12.53
2023-05-23T20:21:45.782Z,11.60
2023-05-23T20:24:47.757Z,13.67
2023-05-23T20:27:50.124Z,13.67
2023-05-23T20:30:52.084Z,12.50
2023-05-23T20:33:54.105Z,13.03
2023-05-23T20:36:56.076Z,12.20
2023-05-23T20:39:58.297Z,14.77
2023-05-23T20:43:04.960Z,11.37
2023-05-23T20:46:12.766Z,12.10
2023-05-23T20:49:15.996Z,11.53
2023-05-23T20:52:18.123Z,14.40
2023-05-23T20:55:20.655Z,11.33
2023-05-23T20:58:22.859Z,14.60
2023-05-23T21:01:24.799Z,12.90
2023-05-23T21:04:26.993Z,12.47
2023-05-23T21:07:28.914Z,9.30
2023-05-23T21:10:32.113Z,9.63
2023-05-23T21:13:34.098Z,10.10
2023-05-23T21:16:37.097Z,9.90
2023-05-23T21:19:39.214Z,8.77
2023-05-23T21:22:41.734Z,10.27
2023-05-23T21:25:44.247Z,12.37
2023-05-23T21:28:46.349Z,8.47
2023-05-23T21:31:48.755Z,9.77
2023-05-23T21:34:51.652Z,7.17
2023-05-23T21:37:54.500Z,8.13
2023-05-23T21:40:56.747Z,10.97
2023-05-23T21:43:58.662Z,9.60
2023-05-23T21:47:00.844Z,9.57
2023-05-23T21:50:04.450Z,10.73
2023-05-23T21:53:06.974Z,9.23
2023-05-23T21:56:08.975Z,7.20
2023-05-23T21:59:11.028Z,11.83
2023-05-23T22:02:12.985Z,8.90
2023-05-23T22:05:15.078Z,10.07
2023-05-23T22:08:17.050Z,7.40
2023-05-23T22:11:19.871Z,7.87
2023-05-23T22:14:21.961Z,9.90
2023-05-23T22:17:27.053Z,8.00
2023-05-23T22:20:30.266Z,7.37
2023-05-23T22:23:32.253Z,11.73
2023-05-23T22:26:34.287Z,7.43
2023-05-23T22:29:36.478Z,9.10
2023-05-23T22:32:38.526Z,6.73
2023-05-23T22:35:41.833Z,6.27
2023-05-23T22:38:43.961Z,9.73
2023-05-23T22:41:46.198Z,11.30
2023-05-23T22:44:48.416Z,7.00
2023-05-23T22:47:50.921Z,9.37
2023-05-23T22:50:54.952Z,10.37
2023-05-23T22:53:57.159Z,8.20
2023-05-23T22:56:59.077Z,9.37
2023-05-23T23:00:01.678Z,8.40
2023-05-23T23:03:04.187Z,8.23
2023-05-23T23:06:07.177Z,8.20
2023-05-23T23:09:09.767Z,7.80
2023-05-23T23:12:11.874Z,9.47
2023-05-23T23:15:14.023Z,7.53
2023-05-23T23:18:17.007Z,6.87
2023-05-23T23:21:19.142Z,8.77
2023-05-23T23:24:21.461Z,7.20
2023-05-23T23:27:30.959Z,7.90
2023-05-23T23:30:34.145Z,10.27
2023-05-23T23:33:36.176Z,6.87
2023-05-23T23:36:39.965Z,8.20
2023-05-23T23:39:42.127Z,8.77
2023-05-23T23:42:44.071Z,7.77
2023-05-23T23:45:46.328Z,11.10
2023-05-23T23:48:48.314Z,7.10
2023-05-23T23:51:50.358Z,6.60
2023-05-23T23:54:52.317Z,7.83
2023-05-23T23:57:54.783Z,6.40
